Jacksonville International Airport Jacksonville US
ICAO: KJAX
IATA: JAX
Category: Large
Scheduled Services: Yes

Elevation: 30 ft
TransAlt. 18000 ft.

Airport Communications:
APP/DEP:118
ATIS:125.85
CLNC DEL:119.5
GND:121.9
ANG MAINT:25.125
ANG SOF:27.39
ANG COMD POST:25.125
TWR:118.3
UNICOM:122.95

KJAX Zoom In..

If you have problems with the map follow the link
https://www.worldairports.se/pages/airport.php?
ICAO=KJAX

Runways:

(A) RW 08 length 10000 ft width 150 ft
ILS 110.70 / hdg 77

(B) RW 14 length 7701 ft width 150 ft
ILS 110.50 / hdg 137

(C) RW 26 length 10000 ft width 150 ft
ILS 110.30 / hdg 257

(D) RW 32 length 7701 ft width 150 ft
---- / hdg 317

Location; KJAX
Day. 20 / Time. 20.56 Zulu
* Altimeter: 30.04
* Temperature: 24° c. 75.2°f.
* Wind from: 060° Speed 07 kn.
Dewpoint: 20° c.
Visibility: 8 Statute Miles.
Clouds: Few 2800 ft.
Clouds: Broken 4500 ft.
Clouds: Broken 8000 ft.
Conditions: Light Rain.

KJAX 202056Z 06007KT 8SM -RA FEW028 BKN045 BKN080 24/20 A3004 RMK AO2 RAB54 SLP172 P0000 60000 T02390200 55017


Wind From 060°
Speed 07 kn.

 
 
jpsmedia.com for Web Design worldairports.se 2019   terms of use